Time;durP1;ratioP1;P1;durP2;ratioP2;P2;SDS_P1;SDS_P2;PMS_P1;PMS_P2;Temp;Humidity;BMP_temperature;BMP_pressure;BME280_temperature;BME280_humidity;BME280_pressure;Samples;Min_cycle;Max_cycle;Signal;HPM_P1;HPM_P2
2024/01/14 00:00:55;;;;;;;54.30;28.63;;;2.10;99.90;;;;;;5092986;28;20260;-82
2024/01/14 00:03:21;;;;;;;49.47;28.80;;;2.10;99.90;;;;;;5093939;28;20501;-82
2024/01/14 00:05:47;;;;;;;50.07;29.00;;;2.00;99.90;;;;;;5092794;28;20620;-82
2024/01/14 00:08:13;;;;;;;54.30;29.30;;;2.00;99.90;;;;;;5091736;28;20167;-81
2024/01/14 00:10:38;;;;;;;50.73;29.07;;;1.90;99.90;;;;;;5095808;28;20186;-81
2024/01/14 00:13:04;;;;;;;53.70;29.43;;;1.90;99.90;;;;;;5102729;28;20175;-82
2024/01/14 00:15:31;;;;;;;55.13;28.73;;;1.90;99.90;;;;;;5105591;28;20184;-83
2024/01/14 00:17:56;;;;;;;50.10;28.37;;;2.00;99.90;;;;;;5093767;28;20192;-81
2024/01/14 00:20:22;;;;;;;49.27;27.57;;;2.10;99.90;;;;;;5093374;28;20210;-82
2024/01/14 00:22:48;;;;;;;50.27;26.20;;;2.10;99.90;;;;;;5091952;28;20242;-82
2024/01/14 00:25:14;;;;;;;50.83;26.57;;;2.00;99.90;;;;;;5092208;28;20229;-84
2024/01/14 00:27:40;;;;;;;45.63;26.83;;;2.00;99.90;;;;;;5091627;28;20179;-81
2024/01/14 00:30:06;;;;;;;48.87;26.63;;;2.00;99.90;;;;;;5092071;28;20175;-81
2024/01/14 00:32:32;;;;;;;51.20;27.87;;;2.00;99.90;;;;;;5092467;28;20179;-81
2024/01/14 00:34:58;;;;;;;54.13;28.43;;;2.00;99.90;;;;;;5090859;28;20690;-83
2024/01/14 00:37:24;;;;;;;47.33;26.57;;;2.10;99.90;;;;;;5090506;28;20179;-81
2024/01/14 00:39:50;;;;;;;49.23;28.40;;;2.10;99.90;;;;;;5090649;28;20653;-81
2024/01/14 00:42:16;;;;;;;48.33;27.13;;;2.00;99.90;;;;;;5091552;28;20168;-82
2024/01/14 00:44:42;;;;;;;46.73;26.80;;;2.10;99.90;;;;;;5092043;28;20241;-81
2024/01/14 00:47:08;;;;;;;58.13;28.93;;;2.00;99.90;;;;;;5091309;28;20211;-81
2024/01/14 00:49:33;;;;;;;46.63;24.93;;;2.00;99.90;;;;;;5090886;28;20212;-82
2024/01/14 00:51:59;;;;;;;53.70;29.10;;;2.00;99.90;;;;;;5091810;28;20159;-81
2024/01/14 00:54:25;;;;;;;46.47;25.47;;;1.90;99.90;;;;;;5091377;28;20172;-82
2024/01/14 00:56:50;;;;;;;53.17;27.83;;;2.00;99.90;;;;;;5093422;28;20213;-82
2024/01/14 00:59:16;;;;;;;48.20;26.80;;;2.00;99.90;;;;;;5091487;28;20202;-82
2024/01/14 01:01:42;;;;;;;51.03;29.20;;;2.00;99.90;;;;;;5090769;28;20179;-82
2024/01/14 01:04:07;;;;;;;49.80;27.77;;;2.10;99.90;;;;;;5090230;28;20628;-81
2024/01/14 01:06:33;;;;;;;52.37;27.87;;;2.20;99.90;;;;;;5090649;28;20175;-81
2024/01/14 01:09:00;;;;;;;55.93;30.07;;;2.20;99.90;;;;;;5091976;28;20671;-82
2024/01/14 01:11:25;;;;;;;51.33;29.13;;;2.20;99.90;;;;;;5091041;28;20182;-82
2024/01/14 01:13:51;;;;;;;45.67;27.10;;;2.20;99.90;;;;;;5093157;28;20479;-82
2024/01/14 01:16:17;;;;;;;50.33;28.70;;;2.20;99.90;;;;;;5091692;28;20168;-81
2024/01/14 01:18:43;;;;;;;50.53;27.23;;;2.10;99.90;;;;;;5091435;28;20195;-81
2024/01/14 01:21:08;;;;;;;49.40;28.17;;;2.10;99.90;;;;;;5089227;28;20677;-81
2024/01/14 01:23:34;;;;;;;52.70;29.57;;;2.00;99.90;;;;;;5091724;28;20171;-81
2024/01/14 01:26:00;;;;;;;48.17;27.83;;;2.10;99.90;;;;;;5090352;28;20210;-82
2024/01/14 01:28:26;;;;;;;51.73;28.17;;;2.00;99.90;;;;;;5091396;28;20716;-82
2024/01/14 01:30:51;;;;;;;50.07;27.33;;;2.10;99.90;;;;;;5091682;28;20171;-82
2024/01/14 01:33:17;;;;;;;51.40;27.33;;;2.10;99.90;;;;;;5089302;28;20274;-81
2024/01/14 01:35:43;;;;;;;46.63;27.60;;;2.10;99.90;;;;;;5091116;28;20255;-81
2024/01/14 01:38:09;;;;;;;53.13;28.60;;;2.20;99.90;;;;;;5093154;28;20172;-80
2024/01/14 01:40:34;;;;;;;45.17;27.47;;;2.30;99.90;;;;;;5091802;28;20222;-81
2024/01/14 01:43:00;;;;;;;48.23;28.47;;;2.30;99.90;;;;;;5090713;28;20167;-81
2024/01/14 01:45:26;;;;;;;46.57;27.43;;;2.30;99.90;;;;;;5091030;28;20215;-82
2024/01/14 01:47:52;;;;;;;49.90;28.27;;;2.10;99.90;;;;;;5091471;28;20221;-82
2024/01/14 01:50:17;;;;;;;46.50;26.73;;;2.10;99.90;;;;;;5090782;28;20211;-81
2024/01/14 01:52:43;;;;;;;45.17;26.93;;;2.10;99.90;;;;;;5091295;28;20576;-82
2024/01/14 01:55:11;;;;;;;51.53;26.37;;;2.10;99.90;;;;;;5090835;28;20171;-82
2024/01/14 01:57:37;;;;;;;52.57;25.47;;;2.00;99.90;;;;;;5089807;28;20218;-81
2024/01/14 02:00:03;;;;;;;48.37;27.00;;;2.10;99.90;;;;;;5090814;28;20237;-81
2024/01/14 02:02:29;;;;;;;49.47;27.33;;;2.10;99.90;;;;;;5098047;28;20170;-82
2024/01/14 02:04:55;;;;;;;52.60;27.20;;;2.10;99.90;;;;;;5099634;28;20235;-81
2024/01/14 02:07:21;;;;;;;48.23;26.17;;;2.10;99.90;;;;;;5089963;28;20612;-82
2024/01/14 02:09:47;;;;;;;46.77;26.27;;;2.10;99.90;;;;;;5092288;28;20176;-82
2024/01/14 02:12:13;;;;;;;47.43;25.80;;;2.20;99.90;;;;;;5092754;28;20163;-82
2024/01/14 02:14:39;;;;;;;47.03;26.10;;;2.20;99.90;;;;;;5090788;28;20175;-81
2024/01/14 02:17:05;;;;;;;51.80;27.50;;;2.30;99.90;;;;;;5091360;28;20187;-81
2024/01/14 02:19:30;;;;;;;46.73;28.47;;;2.10;99.90;;;;;;5093341;28;20659;-81
2024/01/14 02:22:03;;;;;;;45.83;25.23;;;2.10;99.90;;;;;;5090837;28;20581;-81
2024/01/14 02:24:34;;;;;;;47.43;26.33;;;2.00;99.90;;;;;;5090511;28;20217;-81
2024/01/14 02:27:00;;;;;;;45.83;24.37;;;2.00;99.90;;;;;;5092069;28;20172;-82
2024/01/14 02:29:28;;;;;;;47.73;25.27;;;1.90;99.90;;;;;;5090947;28;20225;-81
2024/01/14 02:31:54;;;;;;;45.83;25.80;;;1.90;99.90;;;;;;5091277;28;20228;-81
2024/01/14 02:34:20;;;;;;;47.47;26.20;;;1.90;99.90;;;;;;5093057;28;20172;-82
2024/01/14 02:36:46;;;;;;;50.43;27.60;;;1.90;99.90;;;;;;5095791;28;20229;-82
2024/01/14 02:39:11;;;;;;;47.47;27.97;;;2.00;99.90;;;;;;5093760;28;20203;-80
2024/01/14 02:41:37;;;;;;;45.03;24.93;;;2.10;99.90;;;;;;5094056;28;20753;-83
2024/01/14 02:44:03;;;;;;;54.27;27.90;;;2.20;99.90;;;;;;5094633;28;20658;-82
2024/01/14 02:46:29;;;;;;;47.57;25.67;;;2.10;99.90;;;;;;5095269;28;20174;-81
2024/01/14 02:48:55;;;;;;;45.70;27.63;;;2.00;99.90;;;;;;5092923;28;20176;-81
2024/01/14 02:51:21;;;;;;;46.73;25.40;;;2.00;99.90;;;;;;5093151;28;20214;-83
2024/01/14 02:53:47;;;;;;;48.47;26.70;;;1.90;99.90;;;;;;5093497;28;20240;-81
2024/01/14 02:56:12;;;;;;;51.33;27.20;;;1.90;99.90;;;;;;5093284;28;20624;-80
2024/01/14 02:58:39;;;;;;;55.80;27.33;;;1.90;99.90;;;;;;5093070;28;20171;-82
2024/01/14 03:01:05;;;;;;;49.77;27.37;;;1.90;99.90;;;;;;5095510;28;20293;-82
2024/01/14 03:03:31;;;;;;;52.40;26.83;;;1.90;99.90;;;;;;5092025;28;20171;-82
2024/01/14 03:05:57;;;;;;;45.63;25.70;;;2.00;99.90;;;;;;5093790;28;20615;-82
2024/01/14 03:08:23;;;;;;;42.17;24.40;;;1.80;99.90;;;;;;5093526;28;20727;-81
2024/01/14 03:10:49;;;;;;;46.67;26.40;;;2.00;99.90;;;;;;5093443;28;20763;-80
2024/01/14 03:13:15;;;;;;;46.77;24.73;;;1.90;99.90;;;;;;5092810;28;20179;-80
2024/01/14 03:15:45;;;;;;;49.83;27.60;;;1.80;99.90;;;;;;5093303;28;20171;-81
2024/01/14 03:18:15;;;;;;;46.50;25.73;;;1.90;99.90;;;;;;5093343;28;20670;-81
2024/01/14 03:20:42;;;;;;;47.13;26.80;;;2.00;99.90;;;;;;5092791;28;20679;-81
2024/01/14 03:23:08;;;;;;;51.03;27.40;;;1.70;99.90;;;;;;5094827;28;20160;-80
2024/01/14 03:25:34;;;;;;;45.80;25.27;;;1.90;99.90;;;;;;5092902;28;20164;-82
2024/01/14 03:27:59;;;;;;;44.33;25.57;;;1.80;99.90;;;;;;5091902;28;20172;-81
2024/01/14 03:30:25;;;;;;;48.53;27.13;;;1.80;99.90;;;;;;5092976;28;20620;-81
2024/01/14 03:32:51;;;;;;;48.37;26.37;;;1.90;99.90;;;;;;5092776;28;20218;-81
2024/01/14 03:35:16;;;;;;;44.63;23.77;;;1.90;99.90;;;;;;5093712;28;20175;-81
2024/01/14 03:37:42;;;;;;;48.67;24.67;;;1.80;99.90;;;;;;5093789;28;20214;-81
2024/01/14 03:40:09;;;;;;;43.83;26.17;;;1.70;99.90;;;;;;5092800;28;20216;-81
2024/01/14 03:42:35;;;;;;;47.67;25.30;;;1.70;99.90;;;;;;5093440;28;20171;-82
2024/01/14 03:45:01;;;;;;;48.97;24.37;;;1.90;99.90;;;;;;5092124;28;20172;-81
2024/01/14 03:47:27;;;;;;;48.37;26.60;;;1.70;99.90;;;;;;5097443;28;20178;-82
2024/01/14 03:49:52;;;;;;;49.00;25.10;;;1.70;99.90;;;;;;5109201;28;20186;-80
2024/01/14 03:52:18;;;;;;;42.97;24.80;;;1.80;99.90;;;;;;5101383;28;20176;-81
2024/01/14 03:54:43;;;;;;;48.77;25.80;;;1.70;99.90;;;;;;5091995;28;20547;-81
2024/01/14 03:57:09;;;;;;;44.43;25.83;;;1.80;99.90;;;;;;5094235;28;20184;-81
2024/01/14 03:59:35;;;;;;;43.60;24.87;;;1.80;99.90;;;;;;5091787;28;20570;-82
2024/01/14 04:02:01;;;;;;;47.80;24.90;;;1.70;99.90;;;;;;5092595;28;20467;-81
2024/01/14 04:04:27;;;;;;;44.97;25.13;;;1.60;99.90;;;;;;5092402;28;20164;-81
2024/01/14 04:06:53;;;;;;;50.17;25.47;;;1.60;99.90;;;;;;5089638;28;20176;-81
2024/01/14 04:09:19;;;;;;;47.37;25.50;;;1.80;99.90;;;;;;5082829;28;20219;-81
2024/01/14 04:11:44;;;;;;;46.20;24.83;;;1.80;99.90;;;;;;5071318;28;20196;-82
2024/01/14 04:14:10;;;;;;;46.50;25.87;;;1.80;99.90;;;;;;5071395;28;20546;-82
2024/01/14 04:16:39;;;;;;;46.30;23.53;;;1.80;99.90;;;;;;5072185;28;20168;-81
2024/01/14 04:19:05;;;;;;;45.07;23.30;;;1.80;99.90;;;;;;5071043;28;20289;-82
2024/01/14 04:21:31;;;;;;;44.00;23.73;;;1.70;99.90;;;;;;5072174;28;20176;-84
2024/01/14 04:24:02;;;;;;;41.27;23.10;;;1.60;99.90;;;;;;5071799;28;20169;-83
2024/01/14 04:26:28;;;;;;;41.80;23.53;;;1.70;99.90;;;;;;5073358;28;20191;-81
2024/01/14 04:28:53;;;;;;;48.57;24.93;;;1.70;99.90;;;;;;5072767;28;20237;-81
2024/01/14 04:31:19;;;;;;;41.67;22.93;;;1.90;99.90;;;;;;5071494;28;20547;-81
2024/01/14 04:33:47;;;;;;;45.53;24.00;;;1.70;99.90;;;;;;5072932;28;20164;-82
2024/01/14 04:36:13;;;;;;;43.70;21.97;;;1.60;99.90;;;;;;5053906;28;20176;-81
2024/01/14 04:38:39;;;;;;;44.70;22.23;;;1.60;99.90;;;;;;5071476;28;20546;-81
2024/01/14 04:41:05;;;;;;;44.63;24.63;;;1.60;99.90;;;;;;5070521;28;20578;-80
2024/01/14 04:43:31;;;;;;;46.20;23.83;;;1.50;99.90;;;;;;5070591;28;20636;-81
2024/01/14 04:45:56;;;;;;;41.23;22.33;;;1.60;99.90;;;;;;5073256;28;20231;-81
2024/01/14 04:48:22;;;;;;;43.50;22.83;;;1.60;99.90;;;;;;5072029;28;20632;-80
2024/01/14 04:50:49;;;;;;;41.87;24.23;;;1.50;99.90;;;;;;5071192;28;20176;-81
2024/01/14 04:53:15;;;;;;;43.30;22.83;;;1.60;99.90;;;;;;5070337;28;20211;-80
2024/01/14 04:55:41;;;;;;;41.63;22.20;;;1.60;99.90;;;;;;5068376;28;20200;-81
2024/01/14 04:58:07;;;;;;;48.33;24.10;;;1.60;99.90;;;;;;5070835;28;20253;-81
2024/01/14 05:00:33;;;;;;;44.03;22.43;;;1.80;99.90;;;;;;5070369;28;20208;-81
2024/01/14 05:02:59;;;;;;;43.77;23.00;;;1.60;99.90;;;;;;5070440;28;20171;-81
2024/01/14 05:05:24;;;;;;;46.67;23.07;;;1.70;99.90;;;;;;5071329;28;20194;-81
2024/01/14 05:07:50;;;;;;;47.53;22.67;;;1.70;99.90;;;;;;5072537;28;20185;-81
2024/01/14 05:10:16;;;;;;;38.40;20.97;;;1.60;99.90;;;;;;5071509;28;20738;-81
2024/01/14 05:12:41;;;;;;;47.57;22.77;;;1.50;99.90;;;;;;5070407;28;20639;-81
2024/01/14 05:15:07;;;;;;;42.50;23.77;;;1.40;99.90;;;;;;5070159;28;20211;-81
2024/01/14 05:17:34;;;;;;;43.37;22.00;;;1.50;99.90;;;;;;5071635;28;20219;-81
2024/01/14 05:20:00;;;;;;;44.87;22.80;;;1.60;99.90;;;;;;5071120;28;20215;-81
2024/01/14 05:22:26;;;;;;;44.40;24.47;;;1.60;99.90;;;;;;5070648;28;20172;-82
2024/01/14 05:24:51;;;;;;;44.40;22.23;;;1.70;99.90;;;;;;5071394;28;20549;-81
2024/01/14 05:27:17;;;;;;;41.70;22.33;;;1.70;99.90;;;;;;5069382;28;20179;-81
2024/01/14 05:29:44;;;;;;;38.53;21.33;;;1.70;99.90;;;;;;5071373;28;20168;-81
2024/01/14 05:32:14;;;;;;;42.43;22.70;;;1.60;99.90;;;;;;5081965;28;20156;-81
2024/01/14 05:34:40;;;;;;;45.50;24.73;;;1.70;99.90;;;;;;5084009;28;20270;-80
2024/01/14 05:37:06;;;;;;;42.97;23.13;;;1.70;99.90;;;;;;5074511;28;20211;-81
2024/01/14 05:39:33;;;;;;;42.47;23.13;;;1.70;99.90;;;;;;5070020;28;20722;-81
2024/01/14 05:41:59;;;;;;;43.07;23.23;;;1.60;99.90;;;;;;5075085;28;20164;-80
2024/01/14 05:44:25;;;;;;;41.90;22.80;;;1.60;99.90;;;;;;5090244;28;20230;-81
2024/01/14 05:46:52;;;;;;;39.27;22.27;;;1.60;99.90;;;;;;5089898;28;20221;-81
2024/01/14 05:49:18;;;;;;;43.73;22.97;;;1.80;99.90;;;;;;5089018;28;20174;-80
2024/01/14 05:51:43;;;;;;;41.60;22.93;;;1.60;99.90;;;;;;5089252;28;20188;-81
2024/01/14 05:54:09;;;;;;;40.00;22.07;;;1.70;99.90;;;;;;5091069;28;20174;-81
2024/01/14 05:56:34;;;;;;;41.17;22.53;;;1.60;99.90;;;;;;5090430;28;20195;-81
2024/01/14 05:59:00;;;;;;;41.23;23.27;;;1.60;99.90;;;;;;5090503;28;20167;-81
2024/01/14 06:01:27;;;;;;;42.03;21.67;;;1.60;99.90;;;;;;5089805;28;20232;-80
2024/01/14 06:03:53;;;;;;;41.60;22.43;;;1.60;99.90;;;;;;5090825;28;20164;-81
2024/01/14 06:06:19;;;;;;;41.80;23.17;;;1.60;99.90;;;;;;5090333;28;20179;-81
2024/01/14 06:08:45;;;;;;;41.97;24.07;;;1.60;99.90;;;;;;5095302;28;20179;-81
2024/01/14 06:11:12;;;;;;;37.13;22.07;;;1.80;99.90;;;;;;5098552;28;20542;-81
2024/01/14 06:13:38;;;;;;;40.07;22.07;;;1.80;99.90;;;;;;5096651;28;20635;-81
2024/01/14 06:16:04;;;;;;;38.63;21.57;;;1.60;99.90;;;;;;5106658;28;20252;-83
2024/01/14 06:18:30;;;;;;;39.60;22.77;;;1.60;99.90;;;;;;5096364;28;20214;-82
2024/01/14 06:20:59;;;;;;;40.93;21.80;;;1.60;99.90;;;;;;5095863;28;20627;-80
2024/01/14 06:23:25;;;;;;;39.43;21.43;;;1.70;99.90;;;;;;5095061;28;20173;-80
2024/01/14 06:25:51;;;;;;;45.40;23.03;;;1.70;99.90;;;;;;5094312;28;20659;-81
2024/01/14 06:28:19;;;;;;;48.93;24.50;;;1.80;99.90;;;;;;5093912;28;20179;-80
2024/01/14 06:30:45;;;;;;;43.30;22.43;;;1.70;99.90;;;;;;5094555;28;20757;-80
2024/01/14 06:33:11;;;;;;;41.90;22.70;;;1.70;99.90;;;;;;5094161;28;20195;-81
2024/01/14 06:35:37;;;;;;;41.27;22.17;;;1.60;99.90;;;;;;5094809;28;20224;-80
2024/01/14 06:38:03;;;;;;;38.23;21.10;;;1.60;99.90;;;;;;5094121;28;20180;-81
2024/01/14 06:40:28;;;;;;;39.10;22.37;;;1.50;99.90;;;;;;5093652;28;20210;-81
2024/01/14 06:42:54;;;;;;;35.93;21.90;;;1.50;99.90;;;;;;5093737;28;20539;-80
2024/01/14 06:45:20;;;;;;;36.63;22.17;;;1.60;99.90;;;;;;5093606;28;20179;-81
2024/01/14 06:47:46;;;;;;;36.27;21.20;;;1.60;99.90;;;;;;5094295;28;20164;-81
2024/01/14 06:50:13;;;;;;;39.10;22.03;;;1.60;99.90;;;;;;5094161;28;20217;-81
2024/01/14 06:52:39;;;;;;;37.83;21.80;;;1.50;99.90;;;;;;5093689;28;20230;-81
2024/01/14 06:55:05;;;;;;;38.83;23.17;;;1.50;99.90;;;;;;5094648;28;20287;-81
2024/01/14 06:57:32;;;;;;;46.90;23.10;;;1.50;99.90;;;;;;5094866;28;20215;-82
2024/01/14 07:00:01;;;;;;;39.03;23.50;;;1.60;99.90;;;;;;5093557;28;20286;-81
2024/01/14 07:02:27;;;;;;;44.57;23.13;;;1.60;99.90;;;;;;5095168;28;20247;-81
2024/01/14 07:04:52;;;;;;;42.90;23.20;;;1.60;99.90;;;;;;5093177;28;20262;-81
2024/01/14 07:07:18;;;;;;;37.40;21.17;;;1.60;99.90;;;;;;5093483;28;20640;-81
2024/01/14 07:09:44;;;;;;;40.43;22.90;;;1.60;99.90;;;;;;5093318;28;20195;-82
2024/01/14 07:12:09;;;;;;;45.43;22.60;;;1.50;99.90;;;;;;5095109;28;20623;-81
2024/01/14 07:14:35;;;;;;;38.87;23.10;;;1.60;99.90;;;;;;5102193;28;20174;-80
2024/01/14 07:17:01;;;;;;;39.33;20.47;;;1.60;99.90;;;;;;5099740;28;20174;-80
2024/01/14 07:19:26;;;;;;;41.80;23.50;;;1.60;99.90;;;;;;5093578;28;20204;-82
2024/01/14 07:21:52;;;;;;;41.63;24.17;;;1.70;99.90;;;;;;5094481;28;20179;-81
2024/01/14 07:24:18;;;;;;;36.63;22.33;;;1.70;99.90;;;;;;5093092;28;20240;-81
2024/01/14 07:26:43;;;;;;;39.80;23.10;;;1.80;99.90;;;;;;5092757;28;20695;-80
2024/01/14 07:29:09;;;;;;;40.30;22.83;;;1.70;99.90;;;;;;5092581;28;20179;-82
2024/01/14 07:31:34;;;;;;;37.73;22.47;;;1.60;99.90;;;;;;5093149;28;20195;-81
2024/01/14 07:34:01;;;;;;;38.40;22.20;;;1.60;99.90;;;;;;5093086;28;20700;-82
2024/01/14 07:36:26;;;;;;;39.17;23.27;;;1.70;99.90;;;;;;5092489;28;20171;-82
2024/01/14 07:38:53;;;;;;;37.43;22.43;;;1.70;99.90;;;;;;5093695;28;20172;-83
2024/01/14 07:41:19;;;;;;;39.93;22.77;;;1.80;99.90;;;;;;5093030;28;20289;-82
2024/01/14 07:43:45;;;;;;;40.83;22.47;;;1.90;99.90;;;;;;5092654;28;20687;-81
2024/01/14 07:46:10;;;;;;;41.57;22.27;;;1.90;99.90;;;;;;5092445;28;20192;-81
2024/01/14 07:48:37;;;;;;;36.50;21.47;;;1.90;99.90;;;;;;5090847;28;20203;-81
2024/01/14 07:51:03;;;;;;;38.43;22.70;;;1.80;99.90;;;;;;5092211;28;20217;-81
2024/01/14 07:53:29;;;;;;;36.07;20.50;;;1.80;99.90;;;;;;5092893;28;20210;-81
2024/01/14 07:55:56;;;;;;;40.80;22.53;;;1.70;99.90;;;;;;5092158;28;20179;-81
2024/01/14 07:58:22;;;;;;;42.93;22.00;;;1.60;99.90;;;;;;5094061;28;20566;-80
2024/01/14 08:00:47;;;;;;;39.47;22.70;;;1.70;99.90;;;;;;5092898;28;20210;-81
2024/01/14 08:03:13;;;;;;;38.27;21.80;;;1.60;99.90;;;;;;5091861;28;20205;-81
2024/01/14 08:05:39;;;;;;;40.93;22.87;;;1.50;99.90;;;;;;5092564;28;20171;-81
2024/01/14 08:08:05;;;;;;;45.30;22.87;;;1.60;99.90;;;;;;5092350;28;20183;-81
2024/01/14 08:10:32;;;;;;;38.83;20.00;;;1.60;99.90;;;;;;5091917;28;20282;-83
2024/01/14 08:12:58;;;;;;;42.43;21.87;;;1.60;99.90;;;;;;5092531;28;20175;-81
2024/01/14 08:15:24;;;;;;;39.80;20.80;;;1.50;99.90;;;;;;5092622;28;20179;-80
2024/01/14 08:17:49;;;;;;;41.07;22.07;;;1.50;99.90;;;;;;5093594;28;20203;-81
2024/01/14 08:20:15;;;;;;;39.07;21.00;;;1.50;99.90;;;;;;5091461;28;20286;-81
2024/01/14 08:22:41;;;;;;;34.53;19.07;;;1.50;99.90;;;;;;5090455;28;20639;-82
2024/01/14 08:25:10;;;;;;;37.10;20.83;;;1.50;99.90;;;;;;5091543;28;20171;-81
2024/01/14 08:27:38;;;;;;;36.80;20.77;;;1.50;99.90;;;;;;5092405;28;20175;-81
2024/01/14 08:30:06;;;;;;;35.07;17.60;;;1.40;99.90;;;;;;5091994;28;20623;-80
2024/01/14 08:32:32;;;;;;;36.80;18.97;;;1.50;99.90;;;;;;5092275;28;20213;-80
2024/01/14 08:34:58;;;;;;;37.60;19.40;;;1.50;99.90;;;;;;5091943;28;20663;-80
2024/01/14 08:37:25;;;;;;;37.13;21.33;;;1.50;99.90;;;;;;5090451;28;20203;-81
2024/01/14 08:39:50;;;;;;;37.07;18.87;;;1.50;99.90;;;;;;5091364;28;20272;-81
2024/01/14 08:42:19;;;;;;;37.50;21.43;;;1.60;99.90;;;;;;5091291;28;20180;-81
2024/01/14 08:44:44;;;;;;;35.53;19.63;;;1.60;99.90;;;;;;5090902;28;20168;-82
2024/01/14 08:47:10;;;;;;;33.27;19.90;;;1.70;99.90;;;;;;5091907;28;20168;-81
2024/01/14 08:49:39;;;;;;;36.33;20.73;;;1.70;99.90;;;;;;5092230;28;20240;-82
2024/01/14 08:52:07;;;;;;;37.97;19.90;;;1.60;99.90;;;;;;5092598;28;20178;-82
2024/01/14 08:54:34;;;;;;;35.30;19.90;;;1.60;99.90;;;;;;5093608;28;20184;-83
2024/01/14 08:57:00;;;;;;;35.53;20.73;;;1.50;99.90;;;;;;5091281;28;20183;-81
2024/01/14 08:59:25;;;;;;;32.63;18.50;;;1.50;99.90;;;;;;5091378;28;20206;-83
2024/01/14 09:01:51;;;;;;;34.27;19.80;;;1.50;99.90;;;;;;5091856;28;20171;-81
2024/01/14 09:04:17;;;;;;;34.30;19.43;;;1.50;99.90;;;;;;5091583;28;20175;-82
2024/01/14 09:06:43;;;;;;;37.60;19.67;;;1.50;99.90;;;;;;5090473;28;20264;-83
2024/01/14 09:09:09;;;;;;;33.87;19.57;;;1.50;99.90;;;;;;5085064;28;20168;-82
2024/01/14 09:11:35;;;;;;;33.20;19.87;;;1.50;99.90;;;;;;5078557;28;20640;-82
2024/01/14 09:14:00;;;;;;;35.33;20.30;;;1.50;99.90;;;;;;5070618;28;20228;-82
2024/01/14 09:16:26;;;;;;;35.97;20.67;;;1.60;99.90;;;;;;5085794;28;20179;-81
2024/01/14 09:18:51;;;;;;;32.57;19.13;;;1.70;99.90;;;;;;5090569;28;20237;-81
2024/01/14 09:21:17;;;;;;;33.70;19.60;;;1.60;99.90;;;;;;5090482;28;20203;-83
2024/01/14 09:23:43;;;;;;;34.77;19.23;;;1.70;99.90;;;;;;5091277;28;20259;-83
2024/01/14 09:26:09;;;;;;;31.73;18.97;;;1.80;99.90;;;;;;5092084;28;20167;-82
2024/01/14 09:28:36;;;;;;;30.63;18.63;;;1.80;99.90;;;;;;5090899;28;20179;-81
2024/01/14 09:31:02;;;;;;;34.00;19.60;;;1.80;99.90;;;;;;5090847;28;20175;-80
2024/01/14 09:33:28;;;;;;;32.13;18.53;;;1.80;99.90;;;;;;5091927;28;20176;-80
2024/01/14 09:35:57;;;;;;;34.70;19.57;;;1.80;99.90;;;;;;5076447;28;20184;-81
2024/01/14 09:38:23;;;;;;;33.00;18.57;;;1.80;99.90;;;;;;5072170;28;20172;-81
2024/01/14 09:41:12;;;;;;;33.60;19.20;;;1.80;99.90;;;;;;5072903;28;20683;-81
2024/01/14 09:43:40;;;;;;;29.77;17.77;;;1.80;99.90;;;;;;5074174;28;20199;-81
2024/01/14 09:46:06;;;;;;;27.33;17.30;;;1.80;99.90;;;;;;5075392;28;20187;-81
2024/01/14 09:48:33;;;;;;;28.83;17.60;;;1.80;99.90;;;;;;5076764;28;20164;-80
2024/01/14 09:51:03;;;;;;;29.63;16.83;;;1.70;99.90;;;;;;5077550;28;20180;-81
2024/01/14 09:53:29;;;;;;;25.70;15.63;;;1.80;99.90;;;;;;5075969;28;20172;-80
2024/01/14 09:55:57;;;;;;;28.47;15.90;;;1.80;98.50;;;;;;5075786;28;20172;-81
2024/01/14 09:58:23;;;;;;;23.40;14.77;;;1.70;97.60;;;;;;5076006;28;20538;-80
2024/01/14 10:00:52;;;;;;;26.03;15.03;;;1.90;98.90;;;;;;5077562;28;20212;-79
2024/01/14 10:03:18;;;;;;;24.77;14.47;;;1.80;94.60;;;;;;5085102;28;20241;-79
2024/01/14 10:05:45;;;;;;;22.73;14.00;;;1.80;94.80;;;;;;5096674;28;20572;-79
2024/01/14 10:08:10;;;;;;;24.47;15.77;;;1.80;96.30;;;;;;5094503;28;20168;-82
2024/01/14 10:10:36;;;;;;;23.37;14.33;;;1.90;95.70;;;;;;5086928;28;20256;-83
2024/01/14 10:13:03;;;;;;;23.80;13.97;;;1.80;95.90;;;;;;5098143;28;20185;-79
2024/01/14 10:15:32;;;;;;;22.13;14.20;;;1.90;97.50;;;;;;5095983;28;20645;-81
2024/01/14 10:17:58;;;;;;;26.97;15.50;;;1.80;95.40;;;;;;5092943;28;20282;-82
2024/01/14 10:20:23;;;;;;;27.03;14.60;;;1.80;95.10;;;;;;5094646;28;20282;-80
2024/01/14 10:22:50;;;;;;;19.60;13.40;;;1.90;94.80;;;;;;5095458;28;20216;-82
2024/01/14 10:25:16;;;;;;;23.93;14.33;;;1.80;95.10;;;;;;5094106;28;20182;-80
2024/01/14 10:27:42;;;;;;;25.43;14.43;;;1.80;93.70;;;;;;5094238;28;20195;-81
2024/01/14 10:30:10;;;;;;;26.80;15.23;;;1.80;94.60;;;;;;5093500;28;20214;-81
2024/01/14 10:32:35;;;;;;;22.97;14.00;;;1.80;94.50;;;;;;5093942;28;20473;-81
2024/01/14 10:35:12;;;;;;;21.80;13.83;;;1.90;94.60;;;;;;5094394;28;20733;-82
2024/01/14 10:37:40;;;;;;;28.50;14.80;;;1.90;94.70;;;;;;5096755;28;20191;-81
2024/01/14 10:40:08;;;;;;;26.23;15.53;;;1.90;92.70;;;;;;5095952;28;20274;-82
2024/01/14 10:42:36;;;;;;;21.97;14.67;;;2.00;92.00;;;;;;5094707;28;20167;-82
2024/01/14 10:45:06;;;;;;;23.27;14.07;;;1.90;90.20;;;;;;5094696;28;20221;-81
2024/01/14 10:47:34;;;;;;;25.83;15.90;;;1.80;91.20;;;;;;5092063;28;20171;-83
2024/01/14 10:50:03;;;;;;;24.37;14.43;;;1.80;93.20;;;;;;5093712;28;20171;-83
2024/01/14 10:52:37;;;;;;;24.53;15.53;;;1.90;91.20;;;;;;5093032;28;20305;-83
2024/01/14 10:55:30;;;;;;;25.07;14.57;;;1.80;90.70;;;;;;5093256;28;20643;-81
2024/01/14 10:57:58;;;;;;;27.80;15.70;;;1.80;88.50;;;;;;5094233;28;20179;-82
2024/01/14 11:00:24;;;;;;;26.40;15.80;;;1.70;90.30;;;;;;5093017;28;20257;-80
2024/01/14 11:02:50;;;;;;;24.70;15.33;;;1.80;92.30;;;;;;5092681;28;20168;-80
2024/01/14 11:05:18;;;;;;;23.03;14.73;;;1.80;92.50;;;;;;5090670;28;20200;-79
2024/01/14 11:07:44;;;;;;;25.60;15.50;;;1.90;93.10;;;;;;5092108;28;20190;-79
2024/01/14 11:10:10;;;;;;;26.67;16.60;;;1.90;92.30;;;;;;5092542;28;20188;-79
2024/01/14 11:13:08;;;;;;;25.07;16.03;;;1.90;92.70;;;;;;5094108;28;20175;-79
2024/01/14 11:15:54;;;;;;;30.67;16.00;;;2.00;90.80;;;;;;5094801;28;20174;-81
2024/01/14 11:18:25;;;;;;;27.33;16.93;;;2.10;85.50;;;;;;5092386;28;20179;-80
2024/01/14 11:21:00;;;;;;;24.77;15.23;;;2.10;85.00;;;;;;5092783;28;20309;-81
2024/01/14 11:23:26;;;;;;;27.03;16.00;;;2.00;82.60;;;;;;5092885;28;20167;-80
2024/01/14 11:25:54;;;;;;;26.23;15.93;;;2.10;85.00;;;;;;5093822;28;20178;-84
2024/01/14 11:28:20;;;;;;;26.20;16.30;;;2.10;81.50;;;;;;5092110;28;20160;-82
2024/01/14 11:31:00;;;;;;;24.33;14.93;;;2.00;76.80;;;;;;5093338;28;20267;-87
2024/01/14 11:33:42;;;;;;;25.37;15.60;;;1.90;75.30;;;;;;5092692;28;20163;-82
2024/01/14 11:36:09;;;;;;;25.03;16.07;;;2.00;70.70;;;;;;5091470;28;20258;-82
2024/01/14 11:38:37;;;;;;;26.80;16.33;;;1.90;67.40;;;;;;5092741;28;20164;-82
2024/01/14 11:41:25;;;;;;;27.03;16.00;;;1.90;69.90;;;;;;5094610;28;20211;-82
2024/01/14 11:44:03;;;;;;;26.67;14.97;;;1.90;67.80;;;;;;5073083;28;20679;-82
2024/01/14 11:46:47;;;;;;;27.13;16.30;;;2.00;70.00;;;;;;5070160;28;20176;-82
2024/01/14 11:49:22;;;;;;;26.50;15.40;;;1.90;70.40;;;;;;5072170;28;20300;-81
2024/01/14 11:51:59;;;;;;;32.13;16.37;;;2.00;73.20;;;;;;5089267;28;20262;-81
2024/01/14 11:54:25;;;;;;;30.27;15.93;;;2.10;68.50;;;;;;5072230;28;20179;-82
2024/01/14 11:56:54;;;;;;;28.87;16.40;;;2.00;66.10;;;;;;5072437;28;20249;-81
2024/01/14 11:59:20;;;;;;;29.43;15.80;;;2.10;70.00;;;;;;5071913;28;20168;-81
2024/01/14 12:01:47;;;;;;;28.00;16.13;;;2.10;68.20;;;;;;5071485;28;20203;-81
2024/01/14 12:04:13;;;;;;;27.47;16.73;;;2.20;62.20;;;;;;5073699;28;20262;-81
2024/01/14 12:06:49;;;;;;;28.37;16.60;;;2.20;58.10;;;;;;5077758;28;20842;-82
2024/01/14 12:09:15;;;;;;;26.37;18.07;;;2.10;58.50;;;;;;5092429;28;20171;-82
2024/01/14 12:11:42;;;;;;;26.30;15.33;;;2.20;60.20;;;;;;5091569;28;20174;-82
2024/01/14 12:14:08;;;;;;;30.07;17.73;;;2.20;59.60;;;;;;5092086;28;20198;-83
2024/01/14 12:16:35;;;;;;;31.27;18.23;;;2.20;58.60;;;;;;5091755;28;20167;-83
2024/01/14 12:19:12;;;;;;;28.07;18.10;;;2.30;60.70;;;;;;5091663;28;20214;-81
2024/01/14 12:21:37;;;;;;;27.17;17.20;;;2.30;59.60;;;;;;5092139;28;20190;-81
2024/01/14 12:24:03;;;;;;;28.63;17.67;;;2.30;59.80;;;;;;5092503;28;20167;-82
2024/01/14 12:26:30;;;;;;;30.33;18.20;;;2.20;60.70;;;;;;5089580;28;20662;-82
2024/01/14 12:28:56;;;;;;;32.60;19.23;;;2.30;60.10;;;;;;5082663;28;20168;-81
2024/01/14 12:31:25;;;;;;;29.57;17.03;;;2.20;68.00;;;;;;5083236;28;20242;-80
2024/01/14 12:33:51;;;;;;;27.57;16.63;;;2.10;70.30;;;;;;5094372;28;20176;-83